Terminal Aerodrome Forecast
Issued by NWS Northern Indiana

Home | Current Version | Previous Version | Text Only | Print | Product List | Glossary On
Versions: 1 2 3 4 5 6 7 8 9 10 11 12 13 14
000
FTUS43 KIWX 260500 RRA
TAFFWA
TAF
KFWA 260542Z 2606/2706 20010KT P6SM BKN250
     FM260900 20010KT P6SM BKN020
     FM261400 19012KT P6SM BKN040
     FM261800 19017G25KT P6SM BKN050
      TEMPO 2619/2623 4SM -TSRA BKN025CB=

USA.gov is the U.S. government's official web portal to all federal, state and local government web resources and services.